Cse Prosperity Expr. — 3EES5 — position and weather

sailwx.info

Track history (hours):
 
Tides and Currents Weather Stations Pressure Air Temp Water Temp Dewpoint Dewpoint Depression Visibility Wind Speed Wind Dir Waves Ship Positions

Cse Prosperity Expr.

Last reported at 2016-Sep-27 14:32 UTC. Time now 2016-Sep-28 23:54 UTC.
Position N 22°36' E 120°18'.

Length 168 m; draft 9.3 m.

Type: Cargo ship. MMSI: 371801000.

Date/timePositionNaut miles runAvg speedWind from/ knotsBaromVisibWave heightAir tempDewpointWater temp
2016-Sep-27 14:32N 22°36' E 120°18'0 0.0
2016-Sep-27 13:32N 22°36' E 120°18'0 0.0
2016-Sep-27 10:32N 22°36' E 120°18'0 0.0
2016-Sep-27 00:29N 22°36' E 120°18'0 0.0
2016-Sep-26 20:17N 22°36' E 120°18'0 0.0
2016-Sep-26 19:29N 22°36' E 120°18'0 0.0
2016-Sep-26 13:29N 22°36' E 120°18'0 0.0
2016-Sep-26 02:29N 22°36' E 120°18'0 0.0
2016-Sep-26 01:11N 22°36' E 120°18'0 0.0
2016-Sep-26 00:29N 22°36' E 120°18'0 0.0
2016-Sep-25 21:29N 22°36' E 120°18'0 0.0
2016-Sep-25 17:29N 22°36' E 120°18'0 0.0
2016-Sep-25 16:23N 22°36' E 120°18'0 0.0
2016-Sep-25 15:29N 22°36' E 120°18'0 0.0
2016-Sep-25 14:29N 22°36' E 120°18'0 0.0
2016-Sep-25 12:29N 22°36' E 120°18'0 0.0
2016-Sep-25 11:23N 22°36' E 120°18'0 0.0
2016-Sep-25 10:29N 22°36' E 120°18'0 0.0
2016-Sep-25 09:29N 22°36' E 120°18'0 0.0
2016-Sep-25 07:29N 22°36' E 120°18'6 0.9
2016-Sep-25 00:33N 22°38' E 120°11'9 4.3
2016-Sep-24 22:33N 22°45' E 120°06'6710.9
2016-Sep-24 16:23N 23°51' E 120°01'  
2016-Sep-20 17:25N 34°22' E 135°05'0 0.0
2016-Sep-20 14:31N 34°22' E 135°05'0 0.0
2016-Sep-20 10:13N 34°22' E 135°05'0 0.0
2016-Sep-19 23:33N 34°22' E 135°05'8 2.0
2016-Sep-19 19:31N 34°14' E 135°07'0 0.0
2016-Sep-19 18:31N 34°14' E 135°07'0 0.0
2016-Sep-19 16:29N 34°14' E 135°07'0 0.0
2016-Sep-19 14:31N 34°14' E 135°07'0 0.0
2016-Sep-19 13:31N 34°14' E 135°07'0 0.0
2016-Sep-19 12:28N 34°14' E 135°07'0 0.0
2016-Sep-19 11:25N 34°14' E 135°07'0 0.0
2016-Sep-19 09:31N 34°14' E 135°07'0 0.0
2016-Sep-19 07:28N 34°14' E 135°07'0 0.0
2016-Sep-19 06:28N 34°14' E 135°07'0 0.0
2016-Sep-19 03:23N 34°14' E 135°07'0 0.0
2016-Sep-19 02:31N 34°14' E 135°07'0 0.0
2016-Sep-19 00:32N 34°14' E 135°07'0 0.0
2016-Sep-18 19:23N 34°14' E 135°07'0 0.0
2016-Sep-18 15:28N 34°14' E 135°07'0 0.0
2016-Sep-18 14:28N 34°14' E 135°07'0 0.0
2016-Sep-18 10:31N 34°14' E 135°07'0 0.0
2016-Sep-18 09:29N 34°14' E 135°07'0 0.0
2016-Sep-18 02:31N 34°14' E 135°07'0 0.0
2016-Sep-18 01:31N 34°14' E 135°07'0 0.0
2016-Sep-18 00:31N 34°14' E 135°07'0 0.0
2016-Sep-17 22:28N 34°14' E 135°07'0 0.0
2016-Sep-17 21:31N 34°14' E 135°07'0 0.0
2016-Sep-17 20:31N 34°14' E 135°07'0 0.0
2016-Sep-17 19:13N 34°14' E 135°07'  
Track history (hours):
 
Tides and Currents Weather Stations Pressure Air Temp Water Temp Dewpoint Dewpoint Depression Visibility Wind Speed Wind Dir Waves Ship Positions

Cse Prosperity Expr.

Last reported at 2016-Sep-27 14:32 UTC. Time now 2016-Sep-28 23:54 UTC.
Position N 22°36' E 120°18'.

Length 168 m; draft 9.3 m.

Type: Cargo ship. MMSI: 371801000.

Date/timePositionNaut miles runAvg speedWind from/ knotsBaromVisibWave heightAir tempDewpointWater temp
2016-Sep-27 14:32N 22°36' E 120°18'0 0.0
2016-Sep-27 13:32N 22°36' E 120°18'0 0.0
2016-Sep-27 10:32N 22°36' E 120°18'0 0.0
2016-Sep-27 00:29N 22°36' E 120°18'0 0.0
2016-Sep-26 20:17N 22°36' E 120°18'0 0.0
2016-Sep-26 19:29N 22°36' E 120°18'0 0.0
2016-Sep-26 13:29N 22°36' E 120°18'0 0.0
2016-Sep-26 02:29N 22°36' E 120°18'0 0.0
2016-Sep-26 01:11N 22°36' E 120°18'0 0.0
2016-Sep-26 00:29N 22°36' E 120°18'0 0.0
2016-Sep-25 21:29N 22°36' E 120°18'0 0.0
2016-Sep-25 17:29N 22°36' E 120°18'0 0.0
2016-Sep-25 16:23N 22°36' E 120°18'0 0.0
2016-Sep-25 15:29N 22°36' E 120°18'0 0.0
2016-Sep-25 14:29N 22°36' E 120°18'0 0.0
2016-Sep-25 12:29N 22°36' E 120°18'0 0.0
2016-Sep-25 11:23N 22°36' E 120°18'0 0.0
2016-Sep-25 10:29N 22°36' E 120°18'0 0.0
2016-Sep-25 09:29N 22°36' E 120°18'0 0.0
2016-Sep-25 07:29N 22°36' E 120°18'6 0.9
2016-Sep-25 00:33N 22°38' E 120°11'9 4.3
2016-Sep-24 22:33N 22°45' E 120°06'6710.9
2016-Sep-24 16:23N 23°51' E 120°01'  
2016-Sep-20 17:25N 34°22' E 135°05'0 0.0
2016-Sep-20 14:31N 34°22' E 135°05'0 0.0
2016-Sep-20 10:13N 34°22' E 135°05'0 0.0
2016-Sep-19 23:33N 34°22' E 135°05'8 2.0
2016-Sep-19 19:31N 34°14' E 135°07'0 0.0
2016-Sep-19 18:31N 34°14' E 135°07'0 0.0
2016-Sep-19 16:29N 34°14' E 135°07'0 0.0
2016-Sep-19 14:31N 34°14' E 135°07'0 0.0
2016-Sep-19 13:31N 34°14' E 135°07'0 0.0
2016-Sep-19 12:28N 34°14' E 135°07'0 0.0
2016-Sep-19 11:25N 34°14' E 135°07'0 0.0
2016-Sep-19 09:31N 34°14' E 135°07'0 0.0
2016-Sep-19 07:28N 34°14' E 135°07'0 0.0
2016-Sep-19 06:28N 34°14' E 135°07'0 0.0
2016-Sep-19 03:23N 34°14' E 135°07'0 0.0
2016-Sep-19 02:31N 34°14' E 135°07'0 0.0
2016-Sep-19 00:32N 34°14' E 135°07'0 0.0
2016-Sep-18 19:23N 34°14' E 135°07'0 0.0
2016-Sep-18 15:28N 34°14' E 135°07'0 0.0
2016-Sep-18 14:28N 34°14' E 135°07'0 0.0
2016-Sep-18 10:31N 34°14' E 135°07'0 0.0
2016-Sep-18 09:29N 34°14' E 135°07'0 0.0
2016-Sep-18 02:31N 34°14' E 135°07'0 0.0
2016-Sep-18 01:31N 34°14' E 135°07'0 0.0
2016-Sep-18 00:31N 34°14' E 135°07'0 0.0
2016-Sep-17 22:28N 34°14' E 135°07'0 0.0
2016-Sep-17 21:31N 34°14' E 135°07'0 0.0
2016-Sep-17 20:31N 34°14' E 135°07'0 0.0
2016-Sep-17 19:13N 34°14' E 135°07'  

Dump ship's entire track history